Neuburg — 5BQJ2 — position and weather

sailwx.info

Track history (hours):
 
Tides and Currents Weather Stations Pressure Air Temp Water Temp Dewpoint Dewpoint Depression Visibility Wind Speed Wind Dir Waves Ship Positions

Neuburg

Last reported at 2014-Jul-27 00:33 UTC. Time now 2014-Jul-29 16:48 UTC.
Position N 34°50' W 007°10'.

Length 142 m; draft 7.2 m.

Type: Ship (hazmat cat A). MMSI: 212740000.

Date/timePositionNaut miles runAvg speedWind from/ knotsBaromVisibWave heightAir tempDewpointWater temp
2014-Jul-27 00:33N 34°50' W 007°10'1616.0
2014-Jul-26 23:33N 35°02' W 006°57'34415.3
2014-Jul-26 01:05N 37°34' W 000°34'916.6
2014-Jul-26 00:34N 37°42' W 000°31'1717.0
2014-Jul-25 23:33N 37°59' W 000°26'6 0.3
2014-Jul-25 03:33N 38°04' W 000°24'1615.7
2014-Jul-25 02:33N 37°49' W 000°27'1615.7
2014-Jul-25 01:32N 37°33' W 000°31'1616.2
2014-Jul-25 00:33N 37°22' W 000°45'1816.5
2014-Jul-24 23:29N 37°11' W 001°02'1616.8
2014-Jul-24 22:32N 37°00' W 001°17'1916.3
2014-Jul-24 21:21N 36°47' W 001°35'1416.8
2014-Jul-24 20:33N 36°38' W 001°47'17717.4
2014-Jul-24 10:23N 35°58' W 005°21'9716.6
2014-Jul-24 04:33N 35°07' W 007°02'3916.9
2014-Jul-24 02:15N 34°41' W 007°37'1216.7
2014-Jul-24 01:33N 34°33' W 007°48'  
2014-Jul-19 08:33N 36°26' W 002°20'1815.3
2014-Jul-19 07:21N 36°34' W 001°59'1316.0
2014-Jul-19 06:33N 36°43' W 001°47'1616.1
2014-Jul-19 05:33N 36°54' W 001°32'1716.6
2014-Jul-19 04:30N 37°05' W 001°16'1616.9
2014-Jul-19 03:33N 37°15' W 001°00'2422.6
2014-Jul-19 02:30N 37°30' W 000°38'1515.9
2014-Jul-19 01:33N 37°44' W 000°30'1816.7
2014-Jul-19 00:30N 38°01' W 000°25'17 0.8
2014-Jul-18 04:31N 38°18' W 000°28'1212.6
2014-Jul-18 03:33N 38°06' W 000°24'2115.5
2014-Jul-18 02:13N 37°46' W 000°27'1015.4
2014-Jul-18 01:33N 37°36' W 000°30'3315.3
2014-Jul-17 23:24N 37°13' W 000°59'3615.7
2014-Jul-17 21:07N 36°49' W 001°33'1016.0
2014-Jul-17 20:31N 36°43' W 001°42'1515.8
2014-Jul-17 19:33N 36°32' W 001°56'2215.4
2014-Jul-17 18:08N 36°21' W 002°19'14516.6
2014-Jul-17 09:24N 35°59' W 005°16'  
Track history (hours):
 
Tides and Currents Weather Stations Pressure Air Temp Water Temp Dewpoint Dewpoint Depression Visibility Wind Speed Wind Dir Waves Ship Positions

Neuburg

Last reported at 2014-Jul-27 00:33 UTC. Time now 2014-Jul-29 16:48 UTC.
Position N 34°50' W 007°10'.

Length 142 m; draft 7.2 m.

Type: Ship (hazmat cat A). MMSI: 212740000.

Date/timePositionNaut miles runAvg speedWind from/ knotsBaromVisibWave heightAir tempDewpointWater temp
2014-Jul-27 00:33N 34°50' W 007°10'1616.0
2014-Jul-26 23:33N 35°02' W 006°57'34415.3
2014-Jul-26 01:05N 37°34' W 000°34'916.6
2014-Jul-26 00:34N 37°42' W 000°31'1717.0
2014-Jul-25 23:33N 37°59' W 000°26'6 0.3
2014-Jul-25 03:33N 38°04' W 000°24'1615.7
2014-Jul-25 02:33N 37°49' W 000°27'1615.7
2014-Jul-25 01:32N 37°33' W 000°31'1616.2
2014-Jul-25 00:33N 37°22' W 000°45'1816.5
2014-Jul-24 23:29N 37°11' W 001°02'1616.8
2014-Jul-24 22:32N 37°00' W 001°17'1916.3
2014-Jul-24 21:21N 36°47' W 001°35'1416.8
2014-Jul-24 20:33N 36°38' W 001°47'17717.4
2014-Jul-24 10:23N 35°58' W 005°21'9716.6
2014-Jul-24 04:33N 35°07' W 007°02'3916.9
2014-Jul-24 02:15N 34°41' W 007°37'1216.7
2014-Jul-24 01:33N 34°33' W 007°48'  
2014-Jul-19 08:33N 36°26' W 002°20'1815.3
2014-Jul-19 07:21N 36°34' W 001°59'1316.0
2014-Jul-19 06:33N 36°43' W 001°47'1616.1
2014-Jul-19 05:33N 36°54' W 001°32'1716.6
2014-Jul-19 04:30N 37°05' W 001°16'1616.9
2014-Jul-19 03:33N 37°15' W 001°00'2422.6
2014-Jul-19 02:30N 37°30' W 000°38'1515.9
2014-Jul-19 01:33N 37°44' W 000°30'1816.7
2014-Jul-19 00:30N 38°01' W 000°25'17 0.8
2014-Jul-18 04:31N 38°18' W 000°28'1212.6
2014-Jul-18 03:33N 38°06' W 000°24'2115.5
2014-Jul-18 02:13N 37°46' W 000°27'1015.4
2014-Jul-18 01:33N 37°36' W 000°30'3315.3
2014-Jul-17 23:24N 37°13' W 000°59'3615.7
2014-Jul-17 21:07N 36°49' W 001°33'1016.0
2014-Jul-17 20:31N 36°43' W 001°42'1515.8
2014-Jul-17 19:33N 36°32' W 001°56'2215.4
2014-Jul-17 18:08N 36°21' W 002°19'14516.6
2014-Jul-17 09:24N 35°59' W 005°16'  

Dump ship's entire track history